Historyczne dane pomiarowe

Dodano dane terminowe – wersja testowa.

Dane z okresu 1951-2019

Wersja bazy: 1.34 [2019-03-16, lista zmian], aktualizacja planowana na 2019-04-15

Dane meteo z obszaru Polski uzyskane na podstawie danych udostępnionych przez Instytut Meteorologii i Gospodarki Wodnej – Państwowy Instytut Badawczy.

 

Wybierz Datę:    

       

TemperaturaWilgotnośćWiatrCiśnienieOpadyŚniegCzas trwania zjawisk
 Stacja t tx tn tng RH VA  wxwx mslp ppp RRR   cm mm wxwxwxwxwxwxwx
1959-06-13 20.7 27.4 14.3 11.6 63.8- 5.0 5.7---- 0.0------------
1959-06-14 15.9 24.1 11.8 9.6 45.0- 3.3 5.7---- 0.0------------
1959-06-15 16.2 24.4 5.1 0.8 61.8- 3.0 3.3---- 1.0------------
1959-06-16 12.5 16.0 9.1 6.9 54.8- 6.0 4.7---- 0.0------------
1959-06-17 16.2 22.4 8.9 6.1 59.8- 3.7 3.7---- 0.0------------
1959-06-18 22.4 29.5 10.3 6.3 50.5- 0.7 1.0---- 0.0------------
1959-06-19 18.2 24.5 14.1 9.8 57.8- 5.0 2.0---- 0.0------------
1959-06-20 15.6 21.9 10.1 8.1 44.3- 2.3 2.3---- 0.0------------
1959-06-21 17.1 24.7 5.1 0.2 49.3- 0.0 1.7---- 0.0------------
1959-06-22 18.5 25.1 8.9 4.5 42.8- 1.0 2.3---- 0.0------------
1959-06-23 16.0 21.7 7.4 4.6 51.3- 2.7 2.7---- 0.0------------
1959-06-24 18.1 21.9 11.2 10.8 61.8- 6.0 0.3---- 0.0------------
1959-06-25 15.9 23.6 14.7 14.6 84.8- 5.0 0.7---- 4.0------------
1959-06-26 17.5 24.4 8.3 5.7 75.8- 3.0 2.0---- 1.2------------
1959-06-27 20.3 28.4 10.7 7.7 61.8- 2.3 0.7---- 0.3------------
1959-06-28 18.5 23.7 12.4 9.6 77.5- 7.0 0.7---- 1.2------------
1959-06-29 15.8 22.9 13.1 10.1 88.5- 7.0 0.7---- 12.8------------
1959-06-30 15.7 18.9 13.1 13.1 84.8- 7.3 1.7---- 0.7------------
1959-07-01 17.4 21.5 13.7 14.1 73.3- 4.7 4.3---- 0.0------------
1959-07-02 15.9 18.6 12.4 11.1 79.8- 7.0 4.7---- 4.0------------
1959-07-03 15.6 18.9 11.2 10.0 83.8- 5.3 3.3---- 0.0------------
1959-07-04 16.8 20.1 10.2 13.8 80.5- 5.0 2.7---- 0.0------------
1959-07-05 18.7 25.1 12.5 9.6 67.0- 1.7 1.3---- 0.0------------
1959-07-06 20.4 27.3 10.3 8.3 64.5- 2.7 0.3---- 0.0------------
1959-07-07 21.9 28.4 14.7 12.6 65.0- 4.3 2.7---- 1.5------------
1959-07-08 22.0 29.0 10.8 9.1 63.8- 0.0 1.3---- 0.0------------
1959-07-09 25.3 32.5 15.1 11.7 57.5- 1.3 0.7---- 0.0------------
1959-07-10 27.0 36.0 16.9 13.3 52.8- 0.0 1.0---- 0.0------------
1959-07-11 28.4 38.2 18.8 15.4 46.8- 0.3 0.3---- 0.0------------
1959-07-12 28.8 37.4 19.3 16.6 48.0- 0.0 1.7---- 0.0------------
74.9 ms

 

Źródłem pochodzenia danych jest Instytut Meteorologii i Gospodarki Wodnej – Państwowy Instytut Badawczy. Dane Instytutu Meteorologii i Gospodarki Wodnej – Państwowego Instytutu Badawczego zostały przetworzone.

Dane źródłowe można odnaleźć na stronie https://dane.imgw.pl